createdAt,value
2019-05-05T00:02:11.416Z,101714.22
2019-05-05T00:04:45.512Z,101731.91
2019-05-05T00:07:18.619Z,101744.04
2019-05-05T00:09:51.461Z,101751.84
2019-05-05T00:12:25.177Z,101760.63
2019-05-05T00:14:58.082Z,101761.05
2019-05-05T00:17:31.165Z,101761.05
2019-05-05T00:20:05.317Z,101768.35
2019-05-05T00:22:38.468Z,101766.50
2019-05-05T00:25:14.329Z,101762.11
2019-05-05T00:27:47.646Z,101762.11
2019-05-05T00:30:20.559Z,101735.52
2019-05-05T00:32:54.868Z,101735.52
2019-05-05T00:35:27.867Z,101727.88
2019-05-05T00:38:00.970Z,101729.77
2019-05-05T00:40:35.281Z,101738.59
2019-05-05T00:43:08.224Z,101736.95
2019-05-05T00:45:41.469Z,101734.94
2019-05-05T00:48:15.292Z,101739.89
2019-05-05T00:50:48.299Z,101748.91
2019-05-05T00:53:21.242Z,101752.61
2019-05-05T00:55:54.707Z,101745.37
2019-05-05T00:58:27.592Z,101745.37
2019-05-05T01:01:00.414Z,101751.90
2019-05-05T01:03:34.767Z,101752.77
2019-05-05T01:06:07.738Z,101755.28
2019-05-05T01:08:40.754Z,101755.28
2019-05-05T01:11:14.464Z,101760.71
2019-05-05T01:13:47.430Z,101756.89
2019-05-05T01:16:20.794Z,101756.89
2019-05-05T01:18:55.388Z,101758.98
2019-05-05T01:21:28.315Z,101760.55
2019-05-05T01:24:01.212Z,101753.08
2019-05-05T01:26:35.387Z,101753.08
2019-05-05T01:29:08.560Z,101777.42
2019-05-05T01:31:41.560Z,101783.19
2019-05-05T01:34:15.116Z,101783.19
2019-05-05T01:36:48.186Z,101780.66
2019-05-05T01:39:21.097Z,101759.98
2019-05-05T01:41:54.343Z,101759.98
2019-05-05T01:44:27.239Z,101763.60
2019-05-05T01:47:00.079Z,101763.60
2019-05-05T01:49:34.510Z,101764.77
2019-05-05T01:52:07.614Z,101777.69
2019-05-05T01:54:40.440Z,101771.30
2019-05-05T01:57:14.772Z,101769.19
2019-05-05T01:59:48.135Z,101776.39
2019-05-05T02:02:21.052Z,101779.21
2019-05-05T02:04:55.367Z,101782.95
2019-05-05T02:07:28.598Z,101782.69
2019-05-05T02:10:01.766Z,101790.72
2019-05-05T02:12:35.317Z,101794.57
2019-05-05T02:15:08.960Z,101789.80
2019-05-05T02:17:41.916Z,101788.52
2019-05-05T02:20:41.310Z,101798.91
2019-05-05T02:23:15.162Z,101798.91
2019-05-05T02:25:48.387Z,101795.58
2019-05-05T02:28:21.301Z,101789.29
2019-05-05T02:30:55.008Z,101794.70
2019-05-05T02:33:28.245Z,101799.88
2019-05-05T02:36:01.205Z,101802.22
2019-05-05T02:38:35.405Z,101807.38
2019-05-05T02:41:08.857Z,101803.36
2019-05-05T02:43:44.811Z,101804.61
2019-05-05T02:46:16.954Z,101806.63
2019-05-05T02:48:55.125Z,101800.19
2019-05-05T02:51:28.539Z,101800.45
2019-05-05T02:54:04.408Z,101800.45
2019-05-05T02:56:39.694Z,101797.56
2019-05-05T02:59:15.074Z,101794.73
2019-05-05T03:01:48.044Z,101794.73
2019-05-05T03:04:24.312Z,101798.83
2019-05-05T03:06:58.236Z,101798.83
2019-05-05T03:09:32.170Z,101801.38
2019-05-05T03:12:05.378Z,101800.31
2019-05-05T03:14:40.507Z,101804.39
2019-05-05T03:17:14.433Z,101808.98
2019-05-05T03:19:49.468Z,101808.98
2019-05-05T03:22:24.540Z,101799.53
2019-05-05T03:24:58.132Z,101799.53
2019-05-05T03:27:31.463Z,101798.34
2019-05-05T03:30:05.300Z,101798.27
2019-05-05T03:32:38.260Z,101796.37
2019-05-05T03:35:13.561Z,101795.69
2019-05-05T03:37:46.726Z,101802.92
2019-05-05T03:40:19.883Z,101795.05
2019-05-05T03:42:53.581Z,101790.72
2019-05-05T03:45:26.646Z,101791.73
2019-05-05T03:47:59.720Z,101794.16
2019-05-05T03:50:34.094Z,101789.76
2019-05-05T03:53:07.399Z,101790.08
2019-05-05T03:55:40.316Z,101803.36
2019-05-05T03:58:14.643Z,101803.69
2019-05-05T04:01:26.995Z,101803.69
2019-05-05T04:04:00.126Z,101808.34
2019-05-05T04:06:33.980Z,101804.72
2019-05-05T04:09:07.415Z,101804.72
2019-05-05T04:11:40.712Z,101809.03
2019-05-05T04:14:14.837Z,101815.39
2019-05-05T04:16:47.831Z,101823.87
2019-05-05T04:19:20.783Z,101825.93
2019-05-05T04:21:53.753Z,101819.33
2019-05-05T04:24:26.593Z,101834.20
2019-05-05T04:26:59.609Z,101837.51
2019-05-05T04:29:34.453Z,101832.94
2019-05-05T04:32:07.272Z,101850.30
2019-05-05T04:34:40.513Z,101850.87
2019-05-05T04:37:14.943Z,101850.87
2019-05-05T04:39:48.393Z,101855.98
2019-05-05T04:42:21.392Z,101860.09
2019-05-05T04:44:54.276Z,101860.64
2019-05-05T04:47:27.801Z,101859.77
2019-05-05T04:50:00.793Z,101859.77
2019-05-05T04:52:34.416Z,101861.22
2019-05-05T04:55:07.508Z,101866.12
2019-05-05T04:57:40.418Z,101878.14
2019-05-05T05:00:13.920Z,101877.78
2019-05-05T05:02:46.866Z,101877.75
2019-05-05T05:05:19.908Z,101877.36
2019-05-05T05:07:54.631Z,101877.36
2019-05-05T05:10:28.094Z,101881.59
2019-05-05T05:13:01.446Z,101881.59
2019-05-05T05:15:34.332Z,101882.28
2019-05-05T05:18:07.672Z,101882.28
2019-05-05T05:20:40.697Z,101893.52
2019-05-05T05:23:14.286Z,101894.30
2019-05-05T05:25:47.221Z,101895.49
2019-05-05T05:28:20.594Z,101895.49
2019-05-05T05:30:54.556Z,101897.81
2019-05-05T05:33:27.845Z,101901.29
2019-05-05T05:36:00.768Z,101903.88
2019-05-05T05:38:34.636Z,101897.66
2019-05-05T05:41:07.760Z,101913.01
2019-05-05T05:43:40.714Z,101913.01
2019-05-05T05:46:13.702Z,101909.06
2019-05-05T05:48:46.603Z,101919.84
2019-05-05T05:51:19.629Z,101933.44
2019-05-05T05:53:54.254Z,101933.44
2019-05-05T05:56:27.418Z,101930.27
2019-05-05T05:59:00.388Z,101943.14
2019-05-05T06:01:34.600Z,101949.41
2019-05-05T06:04:07.475Z,101957.66
2019-05-05T06:06:40.437Z,101959.66
2019-05-05T06:09:14.824Z,101949.28
2019-05-05T06:11:47.952Z,101960.62
2019-05-05T06:14:21.340Z,101969.28
2019-05-05T06:16:54.375Z,101969.28
2019-05-05T06:19:27.366Z,101968.13
2019-05-05T06:22:00.319Z,101988.64
2019-05-05T06:24:34.549Z,101988.64
2019-05-05T06:27:07.703Z,101985.80
2019-05-05T06:29:40.744Z,101992.83
2019-05-05T06:32:14.604Z,101994.69
2019-05-05T06:34:47.674Z,101986.78
2019-05-05T06:37:20.771Z,101990.42
2019-05-05T06:39:54.447Z,101990.42
2019-05-05T06:42:27.520Z,101996.22
2019-05-05T06:45:00.419Z,101996.22
2019-05-05T06:47:33.984Z,101999.48
2019-05-05T06:50:07.431Z,102003.31
2019-05-05T06:52:44.232Z,102003.75
2019-05-05T06:55:15.556Z,102011.52
2019-05-05T06:57:48.496Z,102011.52
2019-05-05T07:00:21.456Z,102017.28
2019-05-05T07:02:54.565Z,102022.47
2019-05-05T07:05:28.189Z,102022.80
2019-05-05T07:08:01.097Z,102026.50
2019-05-05T07:10:34.779Z,102026.50
2019-05-05T07:13:07.873Z,102022.81
2019-05-05T07:15:40.863Z,102019.08
2019-05-05T07:18:14.388Z,102016.44
2019-05-05T07:20:47.293Z,102016.33
2019-05-05T07:23:20.221Z,102018.56
2019-05-05T07:25:54.920Z,102020.53
2019-05-05T07:28:28.345Z,102024.09
2019-05-05T07:31:01.667Z,102024.09
2019-05-05T07:33:34.875Z,102033.32
2019-05-05T07:36:07.842Z,102033.32
2019-05-05T07:38:41.122Z,102033.25
2019-05-05T07:41:14.179Z,102043.13
2019-05-05T07:43:47.139Z,102045.94
2019-05-05T07:46:20.099Z,102045.94
2019-05-05T07:48:54.465Z,102044.83
2019-05-05T07:51:27.644Z,102043.28
2019-05-05T07:54:00.906Z,102040.48
2019-05-05T07:56:34.510Z,102039.42
2019-05-05T07:59:07.535Z,102047.92
2019-05-05T08:01:43.459Z,102047.92
2019-05-05T08:04:15.922Z,102057.84
2019-05-05T08:06:48.985Z,102057.84
2019-05-05T08:09:24.647Z,102060.81
2019-05-05T08:11:57.108Z,102062.59
2019-05-05T08:14:30.047Z,102069.48
2019-05-05T08:17:04.132Z,102087.36
2019-05-05T08:19:37.650Z,102079.02
2019-05-05T08:22:10.592Z,102076.83
2019-05-05T08:24:44.025Z,102081.06
2019-05-05T08:27:16.971Z,102079.63
2019-05-05T08:29:50.209Z,102063.50
2019-05-05T08:32:23.774Z,102080.62
2019-05-05T08:35:00.831Z,102080.62
2019-05-05T08:37:31.847Z,102087.27
2019-05-05T08:40:05.789Z,102087.27
2019-05-05T08:42:38.769Z,102101.27
2019-05-05T08:45:13.835Z,102074.52
2019-05-05T08:47:47.158Z,102066.20
2019-05-05T08:50:20.058Z,102066.20
2019-05-05T08:52:53.750Z,102051.38
2019-05-05T08:55:28.519Z,102051.38
2019-05-05T08:58:01.643Z,102056.82
2019-05-05T09:00:34.660Z,102056.84
2019-05-05T09:03:07.666Z,102066.02
2019-05-05T09:05:40.680Z,102066.02
2019-05-05T09:08:14.055Z,102062.05
2019-05-05T09:10:47.062Z,102062.05
2019-05-05T09:13:20.013Z,102088.38
2019-05-05T09:15:54.401Z,102106.00
2019-05-05T09:18:27.432Z,102106.00
2019-05-05T09:21:00.392Z,102118.39
2019-05-05T09:23:34.673Z,102128.81
2019-05-05T09:26:07.682Z,102118.23
2019-05-05T09:28:40.669Z,102118.23
2019-05-05T09:31:14.621Z,102118.47
2019-05-05T09:33:47.832Z,102111.19
2019-05-05T09:36:20.832Z,102111.19
2019-05-05T09:38:54.149Z,102102.97
2019-05-05T09:41:27.092Z,102118.68
2019-05-05T09:44:00.448Z,102118.68
2019-05-05T09:46:34.056Z,102124.73
2019-05-05T09:49:07.006Z,102122.13
2019-05-05T09:51:40.076Z,102118.81
2019-05-05T09:54:16.721Z,102118.81
2019-05-05T09:56:48.030Z,102119.83
2019-05-05T09:59:21.056Z,102116.91
2019-05-05T10:01:54.142Z,102111.70
2019-05-05T10:04:27.173Z,102111.70
2019-05-05T10:07:00.037Z,102111.78
2019-05-05T10:09:34.520Z,102105.05
2019-05-05T10:12:07.728Z,102105.05
2019-05-05T10:14:40.758Z,102108.33
2019-05-05T10:17:14.263Z,102119.98
2019-05-05T10:19:47.425Z,102119.98
2019-05-05T10:22:20.369Z,102122.81
2019-05-05T10:24:56.771Z,102122.81
2019-05-05T10:27:41.910Z,102124.91
2019-05-05T10:30:04.172Z,102128.06
2019-05-05T10:32:37.178Z,102131.91
2019-05-05T10:35:10.558Z,102140.98
2019-05-05T10:37:43.964Z,102156.70
2019-05-05T10:40:17.173Z,102156.70
2019-05-05T10:42:50.285Z,102154.43
2019-05-05T10:45:24.436Z,102148.91
2019-05-05T10:47:57.786Z,102142.63
2019-05-05T10:50:30.993Z,102142.26
2019-05-05T10:53:04.712Z,102139.75
2019-05-05T10:55:38.165Z,102139.75
2019-05-05T10:58:13.656Z,102138.57
2019-05-05T11:00:48.188Z,102139.52
2019-05-05T11:03:23.579Z,102139.52
2019-05-05T11:05:56.575Z,102148.80
2019-05-05T11:08:30.797Z,102143.14
2019-05-05T11:11:04.375Z,102151.38
2019-05-05T11:13:37.318Z,102152.83
2019-05-05T11:16:10.376Z,102159.98
2019-05-05T11:18:43.462Z,102159.98
2019-05-05T11:21:16.531Z,102156.19
2019-05-05T11:23:49.409Z,102150.72
2019-05-05T11:26:24.538Z,102150.66
2019-05-05T11:28:57.280Z,102151.44
2019-05-05T11:31:30.128Z,102151.44
2019-05-05T11:34:03.084Z,102149.84
2019-05-05T11:36:36.166Z,102156.13
2019-05-05T11:39:09.090Z,102156.13
2019-05-05T11:41:44.069Z,102151.55
2019-05-05T11:44:17.153Z,102156.24
2019-05-05T11:46:50.143Z,102156.24
2019-05-05T11:49:24.506Z,102160.78
2019-05-05T11:51:57.584Z,102160.78
2019-05-05T11:54:30.473Z,102165.55
2019-05-05T11:57:04.368Z,102168.16
2019-05-05T11:59:37.678Z,102159.08
2019-05-05T12:02:10.617Z,102148.83
2019-05-05T12:04:43.502Z,102159.56
2019-05-05T12:07:16.334Z,102147.83
2019-05-05T12:09:49.176Z,102150.95
2019-05-05T12:12:22.001Z,102152.03
2019-05-05T12:14:54.842Z,102147.41
2019-05-05T12:17:27.700Z,102145.18
2019-05-05T12:20:00.765Z,102145.18
2019-05-05T12:22:34.096Z,102141.38
2019-05-05T12:25:07.505Z,102144.35
2019-05-05T12:27:40.626Z,102154.45
2019-05-05T12:30:14.241Z,102153.37
2019-05-05T12:32:47.225Z,102153.37
2019-05-05T12:35:20.069Z,102151.31
2019-05-05T12:37:53.816Z,102141.55
2019-05-05T12:40:26.950Z,102151.57
2019-05-05T12:43:00.029Z,102151.57
2019-05-05T12:45:34.485Z,102148.60
2019-05-05T12:48:07.489Z,102148.60
2019-05-05T12:50:40.422Z,102149.34
2019-05-05T12:53:14.548Z,102150.74
2019-05-05T12:55:48.156Z,102146.69
2019-05-05T12:58:20.991Z,102146.69
2019-05-05T13:00:54.121Z,102147.35
2019-05-05T13:03:27.006Z,102157.22
2019-05-05T13:05:59.944Z,102169.53
2019-05-05T13:08:34.085Z,102162.92
2019-05-05T13:11:08.461Z,102171.63
2019-05-05T13:13:43.815Z,102162.74
2019-05-05T13:16:16.786Z,102154.95
2019-05-05T13:18:50.132Z,102154.95
2019-05-05T13:21:23.987Z,102156.98
2019-05-05T13:23:57.039Z,102160.53
2019-05-05T13:26:30.177Z,102160.53
2019-05-05T13:29:03.380Z,102152.05
2019-05-05T13:31:36.925Z,102156.13
2019-05-05T13:34:09.915Z,102156.86
2019-05-05T13:36:44.099Z,102156.86
2019-05-05T13:39:17.451Z,102162.64
2019-05-05T13:41:50.617Z,102158.56
2019-05-05T13:44:24.323Z,102158.56
2019-05-05T13:46:57.152Z,102165.89
2019-05-05T13:49:30.482Z,102172.35
2019-05-05T13:52:04.695Z,102164.33
2019-05-05T13:54:38.195Z,102164.33
2019-05-05T13:57:11.095Z,102150.33
2019-05-05T13:59:44.692Z,102143.07
2019-05-05T14:02:17.712Z,102143.07
2019-05-05T14:04:50.584Z,102155.87
2019-05-05T14:07:24.072Z,102152.88
2019-05-05T14:09:59.028Z,102152.88
2019-05-05T14:12:34.395Z,102155.19
2019-05-05T14:15:10.354Z,102161.94
2019-05-05T14:17:44.009Z,102165.84
2019-05-05T14:20:17.563Z,102161.17
2019-05-05T14:22:51.296Z,102169.58
2019-05-05T14:25:24.420Z,102169.58
2019-05-05T14:27:57.427Z,102175.13
2019-05-05T14:30:30.615Z,102172.16
2019-05-05T14:33:03.928Z,102172.16
2019-05-05T14:35:36.920Z,102156.73
2019-05-05T14:38:09.888Z,102150.23
2019-05-05T14:40:44.576Z,102147.59
2019-05-05T14:43:17.769Z,102148.52
2019-05-05T14:45:51.372Z,102148.52
2019-05-05T14:48:24.368Z,102144.40
2019-05-05T14:50:57.383Z,102145.19
2019-05-05T14:53:30.568Z,102145.19
2019-05-05T14:56:04.633Z,102149.23
2019-05-05T14:58:37.692Z,102149.63
2019-05-05T15:01:11.023Z,102143.28
2019-05-05T15:03:44.463Z,102150.77
2019-05-05T15:06:17.992Z,102150.48
2019-05-05T15:08:51.186Z,102150.48
2019-05-05T15:11:24.193Z,102153.14
2019-05-05T15:13:57.271Z,102152.09
2019-05-05T15:16:30.344Z,102153.27
2019-05-05T15:19:03.911Z,102152.52
2019-05-05T15:21:37.137Z,102155.73
2019-05-05T15:24:10.112Z,102151.42
2019-05-05T15:26:51.197Z,102151.42
2019-05-05T15:29:17.614Z,102147.22
2019-05-05T15:31:51.415Z,102147.77
2019-05-05T15:34:24.820Z,102139.92
2019-05-05T15:36:57.757Z,102136.81
2019-05-05T15:39:30.858Z,102136.81
2019-05-05T15:42:04.619Z,102142.66
2019-05-05T15:44:38.065Z,102145.22
2019-05-05T15:47:11.161Z,102155.90
2019-05-05T15:49:44.215Z,102158.09
2019-05-05T15:52:20.019Z,102158.09
2019-05-05T15:54:53.848Z,102164.08
2019-05-05T15:57:26.770Z,102164.12
2019-05-05T15:59:59.767Z,102166.13
2019-05-05T16:02:35.844Z,102164.18
2019-05-05T16:05:08.434Z,102159.28
2019-05-05T16:07:43.814Z,102168.45
2019-05-05T16:10:17.967Z,102161.38
2019-05-05T16:12:51.312Z,102154.06
2019-05-05T16:15:24.502Z,102166.94
2019-05-05T16:17:57.502Z,102165.80
2019-05-05T16:20:30.391Z,102167.13
2019-05-05T16:23:03.613Z,102167.13
2019-05-05T16:25:37.275Z,102168.55
2019-05-05T16:28:10.189Z,102166.25
2019-05-05T16:30:44.542Z,102170.33
2019-05-05T16:33:17.680Z,102170.33
2019-05-05T16:35:50.774Z,102172.30
2019-05-05T16:38:24.098Z,102174.98
2019-05-05T16:40:57.514Z,102177.37
2019-05-05T16:43:30.764Z,102176.33
2019-05-05T16:46:04.237Z,102176.33
2019-05-05T16:48:37.418Z,102181.20
2019-05-05T16:51:10.401Z,102168.92
2019-05-05T16:53:43.492Z,102168.92
2019-05-05T16:56:16.373Z,102165.59
2019-05-05T16:58:49.322Z,102163.23
2019-05-05T17:01:22.456Z,102163.67
2019-05-05T17:04:07.702Z,102158.00
2019-05-05T17:06:30.502Z,102162.91
2019-05-05T17:09:06.966Z,102161.42
2019-05-05T17:11:40.277Z,102162.27
2019-05-05T17:14:13.287Z,102155.66
2019-05-05T17:16:46.418Z,102155.23
2019-05-05T17:19:19.838Z,102152.91
2019-05-05T17:21:53.633Z,102156.51
2019-05-05T17:24:26.623Z,102158.79
2019-05-05T17:26:59.568Z,102154.47
2019-05-05T17:29:34.374Z,102145.89
2019-05-05T17:32:07.254Z,102145.61
2019-05-05T17:34:40.454Z,102149.70
2019-05-05T17:37:13.532Z,102155.55
2019-05-05T17:39:46.725Z,102149.63
2019-05-05T17:42:19.780Z,102154.49
2019-05-05T17:44:52.786Z,102150.94
2019-05-05T17:47:26.376Z,102151.80
2019-05-05T17:49:59.275Z,102153.39
2019-05-05T17:52:34.243Z,102150.69
2019-05-05T17:55:07.287Z,102148.34
2019-05-05T17:57:40.296Z,102154.98
2019-05-05T18:00:14.775Z,102154.11
2019-05-05T18:02:47.934Z,102149.81
2019-05-05T18:05:20.951Z,102148.75
2019-05-05T18:07:53.854Z,102144.32
2019-05-05T18:10:26.911Z,102147.78
2019-05-05T18:12:59.965Z,102153.45
2019-05-05T18:15:34.109Z,102160.70
2019-05-05T18:18:07.300Z,102160.70
2019-05-05T18:20:40.217Z,102160.40
2019-05-05T18:23:13.863Z,102161.44
2019-05-05T18:25:46.932Z,102156.25
2019-05-05T18:28:20.325Z,102169.40
2019-05-05T18:30:53.981Z,102161.13
2019-05-05T18:33:27.112Z,102161.17
2019-05-05T18:36:00.065Z,102157.74
2019-05-05T18:38:33.694Z,102159.37
2019-05-05T18:41:06.815Z,102160.05
2019-05-05T18:43:39.800Z,102169.75
2019-05-05T18:46:13.672Z,102169.75
2019-05-05T18:48:46.709Z,102159.76
2019-05-05T18:51:19.723Z,102159.76
2019-05-05T18:53:54.903Z,102167.25
2019-05-05T18:56:27.591Z,102173.02
2019-05-05T18:59:00.588Z,102166.00
2019-05-05T19:01:33.798Z,102174.46
2019-05-05T19:04:06.887Z,102169.47
2019-05-05T19:06:40.362Z,102167.25
2019-05-05T19:09:13.744Z,102169.08
2019-05-05T19:11:46.757Z,102166.96
2019-05-05T19:14:19.769Z,102169.39
2019-05-05T19:16:55.258Z,102168.52
2019-05-05T19:19:27.575Z,102165.53
2019-05-05T19:22:00.581Z,102160.91
2019-05-05T19:24:35.377Z,102160.93
2019-05-05T19:27:08.677Z,102167.73
2019-05-05T19:29:41.678Z,102161.97
2019-05-05T19:32:14.765Z,102163.11
2019-05-05T19:34:47.696Z,102160.70
2019-05-05T19:37:20.812Z,102156.88
2019-05-05T19:39:53.651Z,102157.24
2019-05-05T19:42:26.686Z,102157.34
2019-05-05T19:44:59.554Z,102154.63
2019-05-05T19:47:34.054Z,102160.39
2019-05-05T19:50:07.711Z,102159.23
2019-05-05T19:52:40.786Z,102159.23
2019-05-05T19:55:13.904Z,102155.68
2019-05-05T19:57:47.144Z,102157.50
2019-05-05T20:00:20.301Z,102151.53
2019-05-05T20:03:03.961Z,102155.59
2019-05-05T20:05:28.147Z,102150.74
2019-05-05T20:08:00.995Z,102150.74
2019-05-05T20:10:34.115Z,102146.50
2019-05-05T20:13:07.137Z,102152.26
2019-05-05T20:15:40.147Z,102142.85
2019-05-05T20:18:14.180Z,102142.85
2019-05-05T20:21:00.656Z,102141.21
2019-05-05T20:23:24.271Z,102145.13
2019-05-05T20:25:56.931Z,102145.13
2019-05-05T20:28:29.776Z,102143.51
2019-05-05T20:31:03.612Z,102143.51
2019-05-05T20:33:36.730Z,102144.99
2019-05-05T20:36:09.678Z,102142.75
2019-05-05T20:38:44.017Z,102143.00
2019-05-05T20:41:17.498Z,102141.14
2019-05-05T20:43:50.584Z,102138.45
2019-05-05T20:46:23.824Z,102139.90
2019-05-05T20:48:56.884Z,102134.92
2019-05-05T20:51:31.058Z,102133.58
2019-05-05T20:54:04.995Z,102133.58
2019-05-05T20:56:38.070Z,102146.23
2019-05-05T20:59:23.801Z,102136.35
2019-05-05T21:01:45.870Z,102142.69
2019-05-05T21:04:19.572Z,102139.13
2019-05-05T21:06:52.501Z,102144.59
2019-05-05T21:09:25.819Z,102141.26
2019-05-05T21:11:59.036Z,102142.52
2019-05-05T21:14:37.228Z,102142.52
2019-05-05T21:17:06.687Z,102134.10
2019-05-05T21:19:39.576Z,102134.10
2019-05-05T21:22:13.489Z,102126.17
